createdAt,value
2023-06-25T00:01:58.443Z,13.30
2023-06-25T00:04:45.210Z,13.30
2023-06-25T00:07:32.226Z,13.20
2023-06-25T00:10:19.550Z,13.20
2023-06-25T00:13:06.566Z,13.10
2023-06-25T00:15:53.381Z,13.10
2023-06-25T00:18:40.307Z,13.10
2023-06-25T00:21:27.377Z,13.10
2023-06-25T00:24:14.175Z,13.00
2023-06-25T00:27:00.999Z,13.00
2023-06-25T00:29:47.913Z,13.00
2023-06-25T00:32:35.258Z,13.00
2023-06-25T00:35:25.970Z,12.90
2023-06-25T00:38:12.937Z,12.90
2023-06-25T00:41:00.983Z,12.90
2023-06-25T00:43:48.075Z,12.80
2023-06-25T00:46:35.064Z,12.80
2023-06-25T00:49:21.885Z,12.80
2023-06-25T00:52:11.327Z,12.70
2023-06-25T00:54:58.225Z,12.70
2023-06-25T00:57:45.140Z,12.60
2023-06-25T01:00:34.728Z,12.60
2023-06-25T01:03:28.106Z,12.50
2023-06-25T01:06:20.173Z,12.50
2023-06-25T01:09:07.624Z,12.40
2023-06-25T01:12:04.192Z,12.40
2023-06-25T01:14:51.927Z,12.30
2023-06-25T01:17:40.814Z,12.30
2023-06-25T01:20:28.964Z,12.30
2023-06-25T01:23:15.826Z,12.30
2023-06-25T01:26:03.289Z,12.20
2023-06-25T01:28:57.158Z,12.20
2023-06-25T01:31:45.433Z,12.20
2023-06-25T01:34:32.276Z,12.20
2023-06-25T01:37:19.482Z,12.10
2023-06-25T01:40:10.489Z,12.10
2023-06-25T01:42:57.375Z,12.00
2023-06-25T01:45:44.441Z,12.00
2023-06-25T01:48:31.984Z,12.00
2023-06-25T01:51:18.823Z,12.10
2023-06-25T01:54:05.751Z,12.10
2023-06-25T01:56:53.026Z,12.10
2023-06-25T01:59:47.100Z,12.10
2023-06-25T02:02:34.016Z,12.00
2023-06-25T02:05:20.856Z,12.00
2023-06-25T02:08:07.915Z,12.00
2023-06-25T02:10:55.100Z,11.90
2023-06-25T02:13:41.976Z,11.90
2023-06-25T02:16:28.894Z,11.90
2023-06-25T02:19:16.493Z,11.90
2023-06-25T02:22:03.402Z,11.80
2023-06-25T02:24:50.409Z,11.70
2023-06-25T02:27:37.488Z,11.70
2023-06-25T02:30:24.281Z,11.70
2023-06-25T02:33:11.241Z,11.70
2023-06-25T02:35:58.172Z,11.30
2023-06-25T02:38:45.139Z,11.60
2023-06-25T02:41:31.983Z,11.60
2023-06-25T02:44:18.896Z,11.60
2023-06-25T02:47:06.178Z,11.50
2023-06-25T02:49:53.141Z,11.50
2023-06-25T02:52:39.956Z,11.40
2023-06-25T02:55:26.874Z,11.40
2023-06-25T02:58:13.748Z,11.30
2023-06-25T03:01:00.963Z,11.30
2023-06-25T03:03:47.906Z,11.30
2023-06-25T03:06:35.221Z,11.30
2023-06-25T03:09:22.005Z,11.30
2023-06-25T03:12:09.555Z,11.30
2023-06-25T03:14:56.330Z,11.20
2023-06-25T03:17:43.179Z,11.20
2023-06-25T03:20:30.127Z,11.20
2023-06-25T03:23:17.614Z,11.20
2023-06-25T03:26:04.802Z,11.20
2023-06-25T03:28:53.069Z,11.10
2023-06-25T03:31:39.877Z,11.10
2023-06-25T03:34:26.636Z,11.10
2023-06-25T03:37:15.624Z,11.10
2023-06-25T03:40:02.497Z,11.10
2023-06-25T03:42:49.398Z,11.20
2023-06-25T03:45:36.509Z,11.20
2023-06-25T03:48:23.698Z,11.20
2023-06-25T03:51:11.271Z,11.30
2023-06-25T03:53:58.205Z,11.30
2023-06-25T03:56:45.066Z,11.30
2023-06-25T03:59:32.652Z,11.30
2023-06-25T04:02:19.515Z,11.40
2023-06-25T04:05:07.316Z,11.40
2023-06-25T04:07:54.247Z,11.40
2023-06-25T04:10:41.944Z,11.40
2023-06-25T04:13:28.932Z,11.40
2023-06-25T04:16:15.827Z,11.40
2023-06-25T04:19:02.713Z,11.40
2023-06-25T04:21:49.523Z,11.50
2023-06-25T04:24:36.335Z,11.50
2023-06-25T04:27:24.365Z,11.60
2023-06-25T04:30:11.783Z,11.60
2023-06-25T04:33:08.438Z,11.70
2023-06-25T04:35:55.338Z,11.70
2023-06-25T04:38:42.243Z,11.80
2023-06-25T04:41:29.229Z,11.80
2023-06-25T04:44:16.201Z,11.80
2023-06-25T04:47:03.039Z,11.90
2023-06-25T04:49:50.147Z,11.90
2023-06-25T04:52:37.226Z,12.00
2023-06-25T04:55:25.206Z,12.10
2023-06-25T04:58:12.054Z,12.10
2023-06-25T05:00:59.045Z,12.10
2023-06-25T05:03:45.930Z,12.20
2023-06-25T05:06:32.914Z,12.30
2023-06-25T05:09:20.314Z,12.40
2023-06-25T05:12:07.461Z,12.50
2023-06-25T05:14:54.255Z,12.60
2023-06-25T05:17:42.224Z,12.70
2023-06-25T05:20:32.521Z,12.80
2023-06-25T05:23:19.350Z,12.90
2023-06-25T05:26:06.105Z,13.00
2023-06-25T05:28:53.173Z,13.10
2023-06-25T05:31:40.227Z,13.20
2023-06-25T05:34:27.426Z,13.40
2023-06-25T05:37:16.790Z,13.50
2023-06-25T05:40:04.330Z,13.60
2023-06-25T05:42:51.250Z,13.80
2023-06-25T05:45:38.403Z,13.90
2023-06-25T05:48:26.403Z,14.10
2023-06-25T05:51:13.370Z,14.20
2023-06-25T05:54:00.234Z,14.40
2023-06-25T05:56:47.146Z,14.60
2023-06-25T05:59:33.999Z,14.70
2023-06-25T06:02:20.890Z,14.90
2023-06-25T06:05:07.993Z,15.10
2023-06-25T06:07:55.240Z,15.30
2023-06-25T06:10:42.066Z,15.40
2023-06-25T06:13:28.997Z,15.50
2023-06-25T06:16:15.788Z,15.60
2023-06-25T06:19:02.796Z,15.70
2023-06-25T06:21:49.590Z,15.80
2023-06-25T06:24:36.458Z,15.90
2023-06-25T06:27:23.405Z,16.00
2023-06-25T06:30:10.844Z,16.10
2023-06-25T06:32:57.637Z,16.30
2023-06-25T06:35:45.660Z,16.40
2023-06-25T06:38:32.445Z,16.50
2023-06-25T06:41:19.340Z,16.60
2023-06-25T06:44:16.724Z,16.60
2023-06-25T06:47:03.825Z,16.70
2023-06-25T06:49:50.637Z,16.90
2023-06-25T06:52:37.677Z,17.00
2023-06-25T06:55:24.559Z,17.10
2023-06-25T06:58:11.432Z,17.20
2023-06-25T07:00:58.331Z,17.30
2023-06-25T07:03:45.271Z,17.30
2023-06-25T07:06:32.098Z,17.40
2023-06-25T07:09:25.711Z,17.50
2023-06-25T07:12:14.152Z,17.60
2023-06-25T07:15:01.166Z,17.70
2023-06-25T07:17:48.814Z,17.70
2023-06-25T07:20:35.702Z,17.90
2023-06-25T07:23:22.592Z,17.90
2023-06-25T07:26:09.468Z,18.00
2023-06-25T07:28:56.596Z,18.10
2023-06-25T07:31:43.534Z,18.10
2023-06-25T07:34:30.803Z,18.30
2023-06-25T07:37:17.753Z,18.30
2023-06-25T07:40:16.934Z,18.40
2023-06-25T07:43:04.574Z,18.60
2023-06-25T07:45:52.950Z,18.60
2023-06-25T07:48:39.792Z,18.70
2023-06-25T07:51:26.692Z,18.80
2023-06-25T07:54:13.652Z,18.80
2023-06-25T07:57:00.581Z,18.90
2023-06-25T07:59:53.502Z,19.00
2023-06-25T08:02:41.289Z,19.00
2023-06-25T08:05:28.170Z,19.10
2023-06-25T08:08:15.151Z,19.20
2023-06-25T08:11:02.078Z,19.30
2023-06-25T08:13:49.207Z,19.50
2023-06-25T08:16:36.060Z,19.50
2023-06-25T08:19:22.906Z,19.50
2023-06-25T08:22:09.885Z,19.50
2023-06-25T08:24:56.815Z,19.60
2023-06-25T08:27:43.762Z,19.70
2023-06-25T08:30:37.772Z,19.70
2023-06-25T08:33:24.601Z,19.60
2023-06-25T08:36:11.651Z,19.70
2023-06-25T08:38:58.564Z,19.70
2023-06-25T08:41:46.534Z,19.80
2023-06-25T08:44:33.407Z,19.80
2023-06-25T08:47:20.654Z,19.90
2023-06-25T08:50:08.944Z,19.90
2023-06-25T08:52:57.018Z,20.00
2023-06-25T08:55:43.983Z,20.10
2023-06-25T08:58:32.387Z,20.10
2023-06-25T09:01:19.733Z,20.20
2023-06-25T09:04:06.797Z,20.30
2023-06-25T09:07:03.265Z,20.30
2023-06-25T09:09:54.968Z,20.40
2023-06-25T09:12:44.935Z,20.50
2023-06-25T09:15:32.136Z,20.60
2023-06-25T09:18:24.540Z,20.80
2023-06-25T09:21:11.424Z,20.80
2023-06-25T09:23:58.224Z,20.90
2023-06-25T09:26:54.707Z,21.00
2023-06-25T09:29:43.990Z,21.00
2023-06-25T09:32:31.102Z,21.00
2023-06-25T09:35:21.714Z,21.10
2023-06-25T09:38:08.704Z,21.10
2023-06-25T09:40:58.968Z,21.20
2023-06-25T09:43:45.754Z,21.20
2023-06-25T09:46:37.160Z,21.30
2023-06-25T09:49:24.237Z,21.30
2023-06-25T09:52:15.596Z,21.30
2023-06-25T09:55:03.102Z,21.30
2023-06-25T09:57:50.850Z,21.30
2023-06-25T10:00:38.422Z,21.30
2023-06-25T10:03:26.492Z,21.30
2023-06-25T10:06:13.484Z,21.50
2023-06-25T10:09:03.211Z,21.60
2023-06-25T10:11:53.500Z,21.80
2023-06-25T10:14:40.515Z,21.80
2023-06-25T10:17:27.380Z,21.90
2023-06-25T10:20:14.332Z,22.10
2023-06-25T10:23:08.500Z,22.10
2023-06-25T10:25:58.978Z,22.20
2023-06-25T10:28:51.519Z,22.20
2023-06-25T10:31:39.516Z,22.20
2023-06-25T10:34:26.518Z,22.30
2023-06-25T10:37:14.341Z,22.30
2023-06-25T10:40:08.683Z,22.30
2023-06-25T10:42:55.542Z,22.40
2023-06-25T10:45:48.505Z,22.40
2023-06-25T10:48:35.692Z,22.40
2023-06-25T10:51:23.167Z,22.50
2023-06-25T10:54:10.070Z,22.60
2023-06-25T10:57:12.957Z,22.70
2023-06-25T11:00:00.038Z,22.70
2023-06-25T11:02:51.657Z,22.80
2023-06-25T11:05:40.176Z,22.80
2023-06-25T11:08:29.513Z,22.90
2023-06-25T11:11:16.763Z,22.90
2023-06-25T11:14:03.790Z,23.10
2023-06-25T11:16:50.770Z,23.00
2023-06-25T11:19:37.607Z,23.00
2023-06-25T11:22:24.570Z,23.00
2023-06-25T11:25:14.776Z,23.10
2023-06-25T11:28:13.613Z,23.20
2023-06-25T11:31:00.644Z,23.20
2023-06-25T11:33:55.988Z,23.30
2023-06-25T11:36:42.809Z,23.40
2023-06-25T11:39:29.872Z,23.50
2023-06-25T11:42:21.502Z,23.60
2023-06-25T11:45:09.614Z,23.50
2023-06-25T11:47:56.554Z,23.40
2023-06-25T11:50:44.366Z,23.40
2023-06-25T11:53:32.181Z,23.40
2023-06-25T11:56:19.464Z,23.40
2023-06-25T11:59:06.287Z,23.40
2023-06-25T12:01:53.470Z,23.50
2023-06-25T12:04:40.421Z,23.60
2023-06-25T12:07:27.388Z,23.70
2023-06-25T12:10:14.181Z,23.80
2023-06-25T12:13:01.044Z,23.80
2023-06-25T12:15:47.792Z,23.90
2023-06-25T12:18:34.591Z,23.90
2023-06-25T12:21:21.457Z,24.10
2023-06-25T12:24:08.257Z,24.10
2023-06-25T12:26:55.849Z,24.20
2023-06-25T12:29:44.757Z,24.40
2023-06-25T12:32:31.585Z,24.40
2023-06-25T12:35:19.304Z,24.60
2023-06-25T12:38:06.251Z,24.60
2023-06-25T12:40:58.057Z,24.60
2023-06-25T12:43:45.105Z,24.60
2023-06-25T12:46:32.053Z,24.60
2023-06-25T12:49:18.967Z,24.60
2023-06-25T12:52:06.147Z,24.60
2023-06-25T12:54:52.984Z,24.70
2023-06-25T12:57:40.263Z,24.70
2023-06-25T13:00:40.960Z,24.70
2023-06-25T13:03:34.120Z,24.80
2023-06-25T13:06:21.700Z,24.80
2023-06-25T13:09:08.924Z,25.00
2023-06-25T13:11:55.743Z,25.10
2023-06-25T13:14:45.757Z,25.20
2023-06-25T13:17:32.594Z,25.20
2023-06-25T13:20:19.560Z,25.30
2023-06-25T13:23:06.388Z,25.40
2023-06-25T13:25:53.336Z,25.60
2023-06-25T13:28:40.234Z,25.60
2023-06-25T13:31:27.260Z,25.60
2023-06-25T13:34:14.109Z,25.60
2023-06-25T13:37:01.140Z,25.70
2023-06-25T13:39:47.943Z,25.70
2023-06-25T13:42:34.895Z,25.70
2023-06-25T13:45:22.815Z,25.80
2023-06-25T13:48:12.602Z,26.10
2023-06-25T13:51:01.748Z,26.50
2023-06-25T13:53:49.923Z,26.70
2023-06-25T13:56:36.780Z,26.80
2023-06-25T13:59:23.759Z,26.70
2023-06-25T14:02:10.609Z,26.60
2023-06-25T14:04:57.483Z,26.60
2023-06-25T14:07:44.292Z,26.70
2023-06-25T14:10:31.523Z,27.00
2023-06-25T14:13:20.825Z,27.40
2023-06-25T14:16:15.677Z,28.00
2023-06-25T14:19:03.359Z,28.80
2023-06-25T14:21:50.197Z,29.40
2023-06-25T14:24:36.942Z,29.60
2023-06-25T14:27:23.895Z,29.80
2023-06-25T14:30:11.253Z,29.70
2023-06-25T14:32:58.289Z,29.50
2023-06-25T14:35:45.166Z,29.30
2023-06-25T14:38:32.478Z,29.40
2023-06-25T14:41:19.311Z,29.50
2023-06-25T14:44:06.272Z,29.90
2023-06-25T14:46:53.126Z,30.00
2023-06-25T14:49:40.320Z,30.20
2023-06-25T14:52:28.084Z,30.50
2023-06-25T14:55:14.934Z,30.80
2023-06-25T14:58:01.884Z,30.90
2023-06-25T15:00:49.320Z,30.70
2023-06-25T15:03:36.291Z,30.30
2023-06-25T15:06:34.142Z,29.70
2023-06-25T15:09:22.859Z,29.20
2023-06-25T15:12:09.704Z,28.70
2023-06-25T15:14:56.537Z,28.40
2023-06-25T15:17:43.478Z,28.10
2023-06-25T15:20:30.444Z,27.90
2023-06-25T15:23:17.748Z,27.60
2023-06-25T15:26:07.130Z,27.50
2023-06-25T15:28:54.418Z,27.20
2023-06-25T15:31:41.306Z,27.10
2023-06-25T15:34:28.244Z,26.90
2023-06-25T15:37:15.197Z,26.80
2023-06-25T15:40:02.036Z,26.80
2023-06-25T15:42:49.277Z,26.70
2023-06-25T15:45:40.520Z,26.70
2023-06-25T15:48:27.619Z,26.60
2023-06-25T15:51:14.550Z,26.60
2023-06-25T15:54:03.533Z,26.50
2023-06-25T15:56:54.696Z,26.50
2023-06-25T15:59:41.690Z,26.50
2023-06-25T16:02:28.619Z,26.40
2023-06-25T16:05:15.925Z,26.40
2023-06-25T16:08:02.770Z,26.40
2023-06-25T16:10:50.865Z,26.40
2023-06-25T16:13:37.618Z,26.40
2023-06-25T16:16:25.562Z,26.40
2023-06-25T16:22:02.206Z,26.50
2023-06-25T16:24:49.013Z,26.50
2023-06-25T16:27:38.752Z,26.50
2023-06-25T16:30:25.603Z,26.50
2023-06-25T16:33:12.555Z,26.50
2023-06-25T16:35:59.349Z,26.30
2023-06-25T16:38:46.148Z,26.20
2023-06-25T16:41:34.667Z,26.10
2023-06-25T16:44:22.089Z,26.00
2023-06-25T16:47:08.921Z,25.90
2023-06-25T16:49:55.912Z,25.80
2023-06-25T16:52:42.805Z,25.80
2023-06-25T16:55:29.709Z,25.70
2023-06-25T16:58:16.781Z,25.70
2023-06-25T17:01:03.629Z,25.60
2023-06-25T17:03:51.422Z,25.50
2023-06-25T17:06:38.303Z,25.50
2023-06-25T17:09:25.246Z,25.50
2023-06-25T17:12:15.292Z,25.40
2023-06-25T17:15:03.538Z,25.40
2023-06-25T17:17:50.717Z,25.40
2023-06-25T17:20:37.589Z,25.30
2023-06-25T17:23:25.726Z,25.30
2023-06-25T17:26:12.690Z,25.20
2023-06-25T17:28:59.534Z,25.20
2023-06-25T17:31:46.789Z,25.10
2023-06-25T17:34:33.626Z,25.00
2023-06-25T17:37:20.575Z,24.90
2023-06-25T17:40:07.958Z,24.90
2023-06-25T17:42:57.224Z,24.80
2023-06-25T17:45:44.185Z,24.70
2023-06-25T17:48:31.052Z,24.60
2023-06-25T17:51:17.987Z,24.50
2023-06-25T17:54:05.173Z,24.50
2023-06-25T17:56:52.320Z,24.40
2023-06-25T17:59:39.183Z,24.40
2023-06-25T18:02:26.127Z,24.40
2023-06-25T18:05:13.009Z,24.40
2023-06-25T18:08:00.000Z,24.40
2023-06-25T18:10:50.006Z,24.30
2023-06-25T18:13:36.905Z,24.30
2023-06-25T18:16:23.703Z,25.00
2023-06-25T18:19:10.569Z,24.20
2023-06-25T18:21:57.483Z,24.20
2023-06-25T18:24:48.380Z,24.00
2023-06-25T18:27:35.259Z,23.90
2023-06-25T18:30:22.160Z,23.80
2023-06-25T18:33:16.176Z,23.70
2023-06-25T18:36:03.586Z,23.60
2023-06-25T18:38:50.403Z,23.50
2023-06-25T18:41:38.258Z,23.30
2023-06-25T18:44:25.067Z,23.20
2023-06-25T18:47:14.131Z,23.10
2023-06-25T18:50:01.953Z,23.00
2023-06-25T18:52:49.268Z,22.90
2023-06-25T18:55:36.169Z,22.80
2023-06-25T18:58:22.984Z,22.70
2023-06-25T19:01:10.300Z,22.60
2023-06-25T19:03:57.327Z,22.50
2023-06-25T19:06:44.481Z,22.40
2023-06-25T19:09:33.412Z,22.30
2023-06-25T19:12:20.279Z,22.20
2023-06-25T19:15:08.205Z,22.00
2023-06-25T19:17:55.091Z,21.90
2023-06-25T19:20:44.993Z,21.80
2023-06-25T19:23:32.873Z,21.70
2023-06-25T19:26:20.937Z,21.50
2023-06-25T19:29:08.043Z,21.40
2023-06-25T19:31:55.036Z,21.30
2023-06-25T19:34:41.896Z,21.10
2023-06-25T19:37:29.167Z,20.90
2023-06-25T19:40:16.073Z,20.80
2023-06-25T19:43:03.949Z,20.60
2023-06-25T19:45:51.847Z,20.40
2023-06-25T19:48:38.923Z,20.30
2023-06-25T19:51:25.764Z,20.10
2023-06-25T19:54:12.678Z,20.00
2023-06-25T19:57:01.685Z,19.90
2023-06-25T19:59:48.654Z,19.70
2023-06-25T20:02:35.817Z,19.60
2023-06-25T20:05:22.784Z,19.60
2023-06-25T20:08:09.574Z,19.50
2023-06-25T20:10:57.055Z,19.40
2023-06-25T20:13:43.871Z,19.40
2023-06-25T20:16:30.756Z,19.30
2023-06-25T20:19:17.790Z,19.20
2023-06-25T20:22:04.820Z,19.10
2023-06-25T20:24:51.708Z,19.00
2023-06-25T20:27:38.518Z,18.90
2023-06-25T20:30:35.955Z,18.80
2023-06-25T20:33:23.020Z,18.70
2023-06-25T20:36:11.879Z,18.60
2023-06-25T20:38:58.750Z,18.50
2023-06-25T20:41:45.868Z,18.50
2023-06-25T20:44:35.949Z,18.40
2023-06-25T20:47:22.861Z,18.30
2023-06-25T20:50:10.305Z,18.20
2023-06-25T20:53:01.117Z,18.20
2023-06-25T20:55:47.981Z,18.10
2023-06-25T20:58:34.789Z,18.00
2023-06-25T21:01:21.969Z,17.90
2023-06-25T21:04:09.053Z,17.80
2023-06-25T21:06:56.015Z,17.80
2023-06-25T21:09:42.844Z,17.70
2023-06-25T21:12:32.292Z,17.70
2023-06-25T21:15:19.271Z,17.60
2023-06-25T21:18:06.433Z,17.60
2023-06-25T21:20:53.307Z,17.50
2023-06-25T21:23:40.144Z,17.50
2023-06-25T21:26:26.995Z,17.40
2023-06-25T21:29:13.860Z,17.30
2023-06-25T21:32:00.663Z,17.30
2023-06-25T21:34:47.626Z,17.20
2023-06-25T21:37:34.398Z,17.10
2023-06-25T21:40:21.470Z,17.00
2023-06-25T21:43:08.353Z,16.90
2023-06-25T21:45:55.169Z,16.90
2023-06-25T21:48:42.025Z,16.80
2023-06-25T21:51:33.942Z,16.80
2023-06-25T21:54:21.809Z,16.80
2023-06-25T21:57:08.578Z,16.80
2023-06-25T21:59:55.463Z,16.70
2023-06-25T22:02:42.462Z,16.70
2023-06-25T22:05:29.299Z,16.70
2023-06-25T22:08:16.612Z,16.70
2023-06-25T22:11:03.497Z,16.60
2023-06-25T22:13:50.421Z,16.60
2023-06-25T22:16:37.365Z,16.60
2023-06-25T22:19:24.926Z,16.60
2023-06-25T22:22:11.857Z,16.50
2023-06-25T22:24:58.816Z,16.60
2023-06-25T22:27:51.892Z,16.60
2023-06-25T22:30:39.849Z,16.60
2023-06-25T22:33:36.211Z,16.60
2023-06-25T22:36:23.485Z,16.70
2023-06-25T22:39:10.315Z,16.60
2023-06-25T22:41:57.492Z,16.60
2023-06-25T22:44:45.616Z,16.60
2023-06-25T22:47:32.771Z,16.70
2023-06-25T22:50:19.908Z,16.70
2023-06-25T22:53:09.113Z,16.60
2023-06-25T22:55:56.012Z,16.60
2023-06-25T22:58:48.969Z,16.60
2023-06-25T23:01:35.763Z,16.70
2023-06-25T23:04:22.645Z,16.70
2023-06-25T23:07:09.681Z,16.70
2023-06-25T23:09:56.723Z,16.70
2023-06-25T23:12:43.567Z,16.70
2023-06-25T23:15:30.480Z,16.70
2023-06-25T23:18:17.299Z,16.80
2023-06-25T23:21:12.919Z,16.80
2023-06-25T23:24:00.189Z,16.80
2023-06-25T23:26:47.665Z,16.80
2023-06-25T23:29:35.629Z,16.80
2023-06-25T23:32:22.432Z,16.70
2023-06-25T23:35:10.625Z,16.70
2023-06-25T23:37:57.652Z,16.70
2023-06-25T23:40:44.647Z,16.70
2023-06-25T23:43:31.472Z,16.70
2023-06-25T23:46:20.666Z,16.70
2023-06-25T23:49:07.822Z,16.60
2023-06-25T23:51:54.694Z,16.60
2023-06-25T23:54:42.809Z,16.60
2023-06-25T23:57:29.750Z,16.50
